Time;durP1;ratioP1;P1;durP2;ratioP2;P2;SDS_P1;SDS_P2;PMS_P1;PMS_P2;Temp;Humidity;BMP_temperature;BMP_pressure;BME280_temperature;BME280_humidity;BME280_pressure;Samples;Min_cycle;Max_cycle;Signal;HPM_P1;HPM_P2
2021/10/19 00:02:25;;;;;;;49.60;35.85;;;;;;;14.33;79.85;101096.72;5091540;28;20038;-20
2021/10/19 00:04:50;;;;;;;48.97;36.63;;;;;;;13.94;82.23;101099.44;5091243;28;20414;-19
2021/10/19 00:07:16;;;;;;;51.20;38.30;;;;;;;14.31;80.81;101104.16;5091249;28;20039;-20
2021/10/19 00:09:41;;;;;;;47.88;34.72;;;;;;;14.20;80.83;101093.09;5091292;28;20388;-20
2021/10/19 00:12:07;;;;;;;47.22;35.00;;;;;;;14.03;81.12;101079.34;5090904;28;20032;-20
2021/10/19 00:14:32;;;;;;;46.42;33.63;;;;;;;13.98;82.04;101097.97;5091076;28;20110;-19
2021/10/19 00:16:58;;;;;;;50.25;35.80;;;;;;;14.42;80.10;101101.56;5090838;28;20507;-19
2021/10/19 00:19:23;;;;;;;52.28;37.55;;;;;;;14.53;79.27;101093.88;5091016;28;20032;-20
2021/10/19 00:21:49;;;;;;;48.10;37.33;;;;;;;14.55;78.96;101097.16;5090983;28;20024;-21
2021/10/19 00:24:14;;;;;;;44.17;33.83;;;;;;;14.29;80.35;101095.50;5091351;28;20475;-20
2021/10/19 00:26:40;;;;;;;44.28;33.38;;;;;;;13.77;82.73;101087.56;5090676;28;20039;-19
2021/10/19 00:29:05;;;;;;;46.83;32.72;;;;;;;13.65;84.23;101093.63;5090635;28;20032;-19
2021/10/19 00:31:31;;;;;;;43.88;33.35;;;;;;;14.19;81.56;101094.09;5090659;28;20511;-19
2021/10/19 00:33:56;;;;;;;43.63;33.60;;;;;;;14.51;79.70;101085.22;5090840;28;20024;-20
2021/10/19 00:36:21;;;;;;;46.22;33.83;;;;;;;14.25;80.52;101079.00;5090537;28;20032;-19
2021/10/19 00:38:47;;;;;;;47.00;34.33;;;;;;;14.58;79.13;101083.31;5090432;28;20414;-19
2021/10/19 00:41:13;;;;;;;48.55;34.38;;;;;;;14.58;78.73;101077.94;5090098;28;20043;-19
2021/10/19 00:43:39;;;;;;;44.30;33.85;;;;;;;14.68;78.81;101097.06;5055965;28;20024;-19
2021/10/19 00:46:05;;;;;;;46.85;34.30;;;;;;;14.79;78.39;101093.66;5072382;28;20039;-20
2021/10/19 00:48:32;;;;;;;44.15;32.28;;;;;;;14.74;78.32;101090.78;5072148;28;20035;-19
2021/10/19 00:50:57;;;;;;;45.70;32.95;;;;;;;14.75;78.30;101092.47;5089986;28;20122;-20
2021/10/19 00:53:23;;;;;;;48.80;32.28;;;;;;;14.30;80.49;101095.25;5090287;28;20043;-20
2021/10/19 00:55:48;;;;;;;41.95;32.20;;;;;;;13.74;83.65;101091.50;5055201;28;20027;-19
2021/10/19 00:58:14;;;;;;;46.67;33.10;;;;;;;13.70;84.03;101094.84;5090257;28;20032;-20
2021/10/19 01:00:39;;;;;;;45.13;33.17;;;;;;;13.74;83.85;101086.16;5090346;28;20522;-21
2021/10/19 01:03:05;;;;;;;43.40;32.85;;;;;;;13.94;82.82;101102.13;5090369;28;20093;-19
2021/10/19 01:05:30;;;;;;;42.97;33.05;;;;;;;13.85;83.29;101098.88;5090255;28;20079;-19
2021/10/19 01:07:56;;;;;;;48.17;32.85;;;;;;;14.00;82.53;101090.53;5090025;28;20028;-20
2021/10/19 01:10:21;;;;;;;46.67;33.78;;;;;;;14.26;81.08;101100.25;5071749;28;20116;-20
2021/10/19 01:12:47;;;;;;;45.50;34.83;;;;;;;14.33;80.51;101083.28;5089821;28;20035;-20
2021/10/19 01:15:17;;;;;;;45.00;33.30;;;;;;;14.10;81.23;101083.84;5089791;28;20028;-20
2021/10/19 01:17:46;;;;;;;46.58;32.90;;;;;;;13.72;82.98;101090.09;5071730;28;20043;-19
2021/10/19 01:20:22;;;;;;;44.35;31.35;;;;;;;13.50;84.15;101074.31;5089997;28;20040;-20
2021/10/19 01:22:47;;;;;;;46.38;33.90;;;;;;;14.04;81.46;101077.53;5089419;28;20042;-20
2021/10/19 01:25:17;;;;;;;42.47;32.33;;;;;;;14.07;81.09;101080.56;5089773;28;20032;-19
2021/10/19 01:27:47;;;;;;;51.42;35.85;;;;;;;14.27;80.04;101074.25;5071679;28;20034;-20
2021/10/19 01:30:13;;;;;;;50.42;36.22;;;;;;;14.34;80.26;101088.41;5089334;28;20060;-19
2021/10/19 01:32:38;;;;;;;47.88;35.00;;;;;;;14.39;79.93;101093.97;5089551;28;20530;-19
2021/10/19 01:35:05;;;;;;;53.55;36.60;;;;;;;14.46;79.44;101100.13;5089290;28;20028;-19
2021/10/19 01:37:30;;;;;;;46.47;34.60;;;;;;;14.44;79.69;101096.81;5089600;28;20056;-19
2021/10/19 01:39:56;;;;;;;51.33;37.78;;;;;;;14.58;79.02;101089.50;5089666;28;20043;-19
2021/10/19 01:42:21;;;;;;;49.60;36.90;;;;;;;14.54;78.60;101079.38;5089397;28;20579;-20
2021/10/19 01:44:47;;;;;;;54.22;37.75;;;;;;;14.75;78.06;101092.47;5089665;28;20035;-20
2021/10/19 01:47:12;;;;;;;48.92;34.38;;;;;;;14.04;80.71;101096.28;5089730;28;20024;-21
2021/10/19 01:49:38;;;;;;;45.75;34.70;;;;;;;13.66;83.41;101103.28;5071575;28;20794;-20
2021/10/19 01:52:03;;;;;;;50.00;35.20;;;;;;;14.07;81.40;101104.72;5070198;28;20039;-20
2021/10/19 01:54:29;;;;;;;51.45;37.08;;;;;;;13.67;82.19;101082.69;5089206;28;20039;-19
2021/10/19 01:56:54;;;;;;;51.30;36.92;;;;;;;14.23;80.55;101102.56;5089112;28;20032;-20
2021/10/19 01:59:20;;;;;;;48.65;35.40;;;;;;;13.80;82.37;101103.25;5089763;28;20032;-19
2021/10/19 02:01:45;;;;;;;49.20;33.55;;;;;;;13.65;82.80;101098.97;5089103;28;20055;-19
2021/10/19 02:04:11;;;;;;;45.33;34.00;;;;;;;13.53;83.77;101094.50;5089228;28;20081;-19
2021/10/19 02:06:36;;;;;;;49.75;35.80;;;;;;;13.86;81.88;101105.06;5088936;28;20028;-20
2021/10/19 02:09:02;;;;;;;48.40;35.60;;;;;;;14.02;80.67;101104.56;5088773;28;20043;-19
2021/10/19 02:11:27;;;;;;;47.83;34.75;;;;;;;13.53;82.82;101099.88;5088949;28;20403;-20
2021/10/19 02:13:52;;;;;;;42.50;33.70;;;;;;;13.52;83.25;101114.28;5089055;28;20047;-19
2021/10/19 02:16:18;;;;;;;46.05;33.90;;;;;;;13.63;82.73;101106.41;5088778;28;20411;-20
2021/10/19 02:18:43;;;;;;;46.78;32.78;;;;;;;13.91;81.30;101118.63;5088998;28;20036;-19
2021/10/19 02:21:09;;;;;;;40.28;32.50;;;;;;;13.34;83.77;101123.00;5088702;28;20028;-21
2021/10/19 02:23:34;;;;;;;41.95;30.38;;;;;;;13.07;85.14;101112.34;5089351;28;20109;-19
2021/10/19 02:26:00;;;;;;;39.90;30.52;;;;;;;12.86;86.64;101127.63;5088869;28;20024;-20
2021/10/19 02:28:25;;;;;;;42.97;30.25;;;;;;;12.74;87.14;101118.56;5088990;28;20066;-19
2021/10/19 02:30:51;;;;;;;39.38;29.77;;;;;;;12.96;86.36;101123.72;5088413;28;20071;-20
2021/10/19 02:33:16;;;;;;;41.10;30.88;;;;;;;13.50;83.22;101132.44;5070719;28;20038;-20
2021/10/19 02:35:42;;;;;;;39.10;29.23;;;;;;;13.19;84.34;101134.78;5088547;28;20054;-20
2021/10/19 02:38:07;;;;;;;40.90;29.95;;;;;;;13.11;84.81;101145.72;5088947;28;20034;-19
2021/10/19 02:40:33;;;;;;;40.05;29.45;;;;;;;13.27;83.81;101133.72;5088982;28;20407;-19
2021/10/19 02:42:58;;;;;;;43.65;30.70;;;;;;;13.64;82.37;101150.13;5088327;28;20024;-20
2021/10/19 02:45:24;;;;;;;43.65;31.83;;;;;;;13.74;81.41;101136.25;5088795;28;20480;-20
2021/10/19 02:47:50;;;;;;;45.40;32.75;;;;;;;13.98;80.36;101145.44;5070593;28;20036;-20
2021/10/19 02:50:15;;;;;;;42.70;31.33;;;;;;;13.72;81.82;101147.19;5089136;28;20044;-20
2021/10/19 02:52:41;;;;;;;40.70;31.05;;;;;;;13.22;84.44;101149.63;5088429;28;20042;-20
2021/10/19 02:55:07;;;;;;;39.17;30.48;;;;;;;13.34;84.05;101134.56;5088555;28;20039;-21
2021/10/19 02:57:33;;;;;;;43.13;30.30;;;;;;;13.19;84.85;101158.06;5088671;28;20023;-21
2021/10/19 02:59:59;;;;;;;45.17;32.13;;;;;;;13.51;83.52;101148.31;5088957;28;20139;-19
2021/10/19 03:02:24;;;;;;;46.47;32.90;;;;;;;13.05;85.97;101149.22;5070386;28;20085;-19
2021/10/19 03:04:50;;;;;;;48.80;30.98;;;;;;;13.00;86.48;101132.97;5092487;28;20050;-20
2021/10/19 03:07:16;;;;;;;47.17;34.75;;;;;;;13.02;86.73;101152.31;5092486;28;20824;-19
2021/10/19 03:09:41;;;;;;;52.65;36.17;;;;;;;13.34;85.02;101160.53;5092435;28;20032;-19
2021/10/19 03:12:07;;;;;;;48.60;33.72;;;;;;;13.46;84.54;101162.34;5092239;28;20035;-20
2021/10/19 03:14:32;;;;;;;38.47;29.52;;;;;;;13.30;84.42;101159.28;5092086;28;20032;-20
2021/10/19 03:16:57;;;;;;;44.75;31.17;;;;;;;13.64;82.91;101153.63;5091925;28;20415;-20
2021/10/19 03:19:23;;;;;;;40.88;30.25;;;;;;;13.36;84.63;101164.66;5092069;28;20043;-19
2021/10/19 03:21:49;;;;;;;42.58;31.02;;;;;;;13.89;82.03;101166.28;5092038;28;20177;-19
2021/10/19 03:24:14;;;;;;;42.47;30.15;;;;;;;13.49;83.10;101152.25;5092030;28;20043;-19
2021/10/19 03:26:40;;;;;;;41.42;28.75;;;;;;;13.18;84.69;101167.97;5091468;28;20107;-20
2021/10/19 03:29:05;;;;;;;39.85;29.85;;;;;;;13.68;82.59;101161.25;5072678;28;20042;-19
2021/10/19 03:31:35;;;;;;;41.78;31.50;;;;;;;13.73;81.64;101137.28;5091653;28;20121;-20
2021/10/19 03:34:01;;;;;;;38.58;29.13;;;;;;;13.67;82.09;101160.44;5091821;28;20036;-20
2021/10/19 03:36:26;;;;;;;38.88;27.95;;;;;;;13.83;81.16;101159.94;5091789;28;20107;-20
2021/10/19 03:38:52;;;;;;;40.00;29.00;;;;;;;13.31;83.20;101155.59;5091710;28;20047;-19
2021/10/19 03:41:17;;;;;;;36.03;27.20;;;;;;;13.00;85.33;101165.09;5074109;28;20089;-20
2021/10/19 03:43:43;;;;;;;36.67;27.02;;;;;;;13.26;83.96;101167.72;5091893;28;20369;-23
2021/10/19 03:46:08;;;;;;;39.17;28.40;;;;;;;13.16;83.95;101156.63;5073402;28;20047;-19
2021/10/19 03:48:34;;;;;;;40.60;28.25;;;;;;;13.03;84.59;101175.38;5091742;28;20024;-20
2021/10/19 03:50:59;;;;;;;36.28;27.38;;;;;;;13.06;84.50;101170.44;5091477;28;20035;-19
2021/10/19 03:53:25;;;;;;;40.75;28.38;;;;;;;12.93;85.14;101164.28;5091841;28;20116;-20
2021/10/19 03:55:50;;;;;;;37.15;27.83;;;;;;;12.48;87.15;101164.06;5091385;28;20487;-19
2021/10/19 03:58:16;;;;;;;39.92;27.25;;;;;;;12.72;86.43;101155.44;5091600;28;20028;-19
2021/10/19 04:00:41;;;;;;;36.08;25.40;;;;;;;12.78;86.03;101181.38;5091527;28;20455;-19
2021/10/19 04:03:08;;;;;;;35.80;26.02;;;;;;;12.65;86.31;101168.81;5091065;28;20040;-19
2021/10/19 04:05:33;;;;;;;33.28;25.30;;;;;;;12.60;86.58;101175.81;5091497;28;20024;-20
2021/10/19 04:07:59;;;;;;;34.60;26.40;;;;;;;12.81;85.83;101183.66;5091137;28;20539;-20
2021/10/19 04:10:25;;;;;;;35.65;25.85;;;;;;;12.89;83.48;101169.22;5091192;28;20024;-20
2021/10/19 04:12:50;;;;;;;35.22;26.50;;;;;;;13.25;82.09;101184.81;5090836;28;20104;-20
2021/10/19 04:15:15;;;;;;;40.05;29.20;;;;;;;13.11;81.55;101177.84;5090225;28;20024;-21
2021/10/19 04:17:41;;;;;;;50.42;34.40;;;;;;;13.10;82.04;101192.28;5091091;28;20094;-20
2021/10/19 04:20:07;;;;;;;42.13;31.35;;;;;;;12.94;81.68;101176.66;5091570;28;20031;-20
2021/10/19 04:22:32;;;;;;;48.30;33.05;;;;;;;13.18;81.21;101194.75;5072882;28;20050;-19
2021/10/19 04:24:59;;;;;;;40.63;28.98;;;;;;;13.00;81.90;101206.09;5090609;28;20028;-20
2021/10/19 04:27:24;;;;;;;37.60;28.73;;;;;;;12.80;81.46;101197.22;5090764;28;20028;-20
2021/10/19 04:29:50;;;;;;;37.60;28.08;;;;;;;12.97;81.81;101214.50;5090791;28;20047;-20
2021/10/19 04:32:15;;;;;;;37.58;26.67;;;;;;;13.09;80.23;101185.25;5090506;28;20060;-19
2021/10/19 04:34:41;;;;;;;34.60;26.35;;;;;;;12.92;80.18;101200.13;5090598;28;20031;-20
2021/10/19 04:37:06;;;;;;;35.53;25.58;;;;;;;12.91;79.90;101207.31;5090527;28;20127;-19
2021/10/19 04:39:32;;;;;;;33.58;26.10;;;;;;;12.56;81.33;101220.06;5090456;28;20424;-19
2021/10/19 04:41:57;;;;;;;35.45;26.25;;;;;;;12.20;82.96;101213.19;5090839;28;20032;-20
2021/10/19 04:44:23;;;;;;;34.85;23.25;;;;;;;12.33;82.39;101226.59;5090823;28;20186;-19
2021/10/19 04:46:48;;;;;;;32.10;23.63;;;;;;;12.17;82.93;101221.63;5090282;28;20032;-19
2021/10/19 04:49:14;;;;;;;32.03;23.80;;;;;;;12.04;83.92;101220.53;5090454;28;20491;-19
2021/10/19 04:51:41;;;;;;;34.33;23.88;;;;;;;12.00;84.53;101226.50;5090648;28;20063;-20
2021/10/19 04:54:06;;;;;;;33.13;23.40;;;;;;;11.93;85.25;101229.16;5090095;28;20040;-21
2021/10/19 04:56:32;;;;;;;34.90;23.98;;;;;;;11.88;85.42;101226.22;5091048;28;20028;-19
2021/10/19 04:58:57;;;;;;;30.77;22.02;;;;;;;11.59;86.03;101224.63;5090059;28;20035;-20
2021/10/19 05:01:22;;;;;;;28.13;20.95;;;;;;;11.59;86.47;101233.47;5090486;28;20043;-20
2021/10/19 05:03:48;;;;;;;24.70;18.45;;;;;;;11.70;86.38;101249.97;5090083;28;20502;-20
2021/10/19 05:06:14;;;;;;;27.20;19.40;;;;;;;11.77;85.10;101232.09;5090131;28;20031;-19
2021/10/19 05:08:40;;;;;;;29.27;19.63;;;;;;;11.98;85.10;101248.06;5072129;28;20377;-20
2021/10/19 05:11:05;;;;;;;25.30;18.48;;;;;;;12.16;83.21;101244.06;5089665;28;20506;-20
2021/10/19 05:13:31;;;;;;;27.67;18.85;;;;;;;12.31;82.33;101255.41;5071821;28;20081;-19
2021/10/19 05:15:56;;;;;;;24.90;17.92;;;;;;;12.43;82.21;101255.66;5089821;28;20096;-20
2021/10/19 05:18:21;;;;;;;24.63;17.23;;;;;;;12.54;81.53;101256.91;5090065;28;20032;-20
2021/10/19 05:20:47;;;;;;;23.55;17.45;;;;;;;12.61;80.75;101263.09;5090116;28;20427;-20
2021/10/19 05:23:12;;;;;;;26.05;17.08;;;;;;;12.61;80.83;101257.75;5089695;28;20032;-19
2021/10/19 05:25:38;;;;;;;21.95;15.75;;;;;;;12.59;80.85;101262.47;5089618;28;20027;-19
2021/10/19 05:28:04;;;;;;;21.50;16.00;;;;;;;12.64;80.09;101250.13;5090225;28;20035;-21
2021/10/19 05:30:29;;;;;;;24.98;16.17;;;;;;;12.89;79.56;101270.13;5089944;28;20036;-19
2021/10/19 05:32:55;;;;;;;23.85;16.50;;;;;;;12.58;78.76;101268.84;5089571;28;20039;-20
2021/10/19 05:35:20;;;;;;;22.38;16.30;;;;;;;12.44;78.35;101263.47;5089529;28;20024;-19
2021/10/19 05:37:46;;;;;;;22.75;16.20;;;;;;;12.16;79.27;101276.13;5089651;28;20063;-20
2021/10/19 05:40:11;;;;;;;25.00;15.00;;;;;;;12.15;78.76;101279.81;5089575;28;20093;-19
2021/10/19 05:42:37;;;;;;;25.60;16.92;;;;;;;11.94;79.59;101281.56;5089921;28;20110;-20
2021/10/19 05:45:04;;;;;;;22.08;16.02;;;;;;;11.85;79.25;101264.03;5089190;28;20024;-20
2021/10/19 05:47:30;;;;;;;28.80;17.20;;;;;;;12.19;78.62;101284.56;5089430;28;20024;-19
2021/10/19 05:49:55;;;;;;;23.50;16.10;;;;;;;12.11;77.09;101286.59;5089815;28;20043;-19
2021/10/19 05:52:21;;;;;;;24.50;15.85;;;;;;;12.04;77.52;101294.59;5089392;28;20040;-19
2021/10/19 05:54:46;;;;;;;25.92;17.52;;;;;;;12.09;77.85;101292.13;5088986;28;20035;-19
2021/10/19 05:57:11;;;;;;;26.35;16.58;;;;;;;12.04;77.38;101303.44;5089352;28;20031;-19
2021/10/19 05:59:38;;;;;;;27.48;17.73;;;;;;;12.20;77.93;101304.13;5089026;28;20511;-20
2021/10/19 06:02:04;;;;;;;27.85;20.17;;;;;;;12.45;77.04;101302.56;5089208;28;20031;-20
2021/10/19 06:04:29;;;;;;;25.90;18.15;;;;;;;12.44;76.88;101306.28;5089094;28;20488;-19
2021/10/19 06:06:56;;;;;;;24.27;17.83;;;;;;;12.63;76.60;101323.41;5089028;28;20032;-20
2021/10/19 06:09:22;;;;;;;23.80;16.98;;;;;;;12.80;75.87;101317.69;5088996;28;20028;-20
2021/10/19 06:11:48;;;;;;;24.60;17.98;;;;;;;13.14;73.80;101337.31;5089419;28;20079;-20
2021/10/19 06:14:13;;;;;;;26.38;17.75;;;;;;;13.05;74.69;101332.13;5089135;28;20028;-20
2021/10/19 06:16:38;;;;;;;24.67;17.25;;;;;;;13.08;73.95;101338.97;5088764;28;20853;-19
2021/10/19 06:19:04;;;;;;;25.98;17.55;;;;;;;13.23;72.76;101339.56;5088706;28;20409;-19
2021/10/19 06:21:29;;;;;;;23.52;17.05;;;;;;;13.35;71.22;101360.44;5070965;28;20020;-20
2021/10/19 06:23:55;;;;;;;24.17;17.33;;;;;;;13.19;70.79;101357.09;5088793;28;20472;-19
2021/10/19 06:26:20;;;;;;;26.65;17.40;;;;;;;13.33;72.08;101346.44;5088882;28;20020;-20
2021/10/19 06:28:46;;;;;;;29.25;18.58;;;;;;;13.33;71.56;101357.16;5088601;28;20043;-20
2021/10/19 06:31:11;;;;;;;25.77;18.08;;;;;;;13.29;71.45;101367.44;5088778;28;20492;-19
2021/10/19 06:33:37;;;;;;;22.15;17.30;;;;;;;13.14;70.75;101375.63;5089165;28;20052;-19
2021/10/19 06:36:06;;;;;;;25.88;19.10;;;;;;;12.68;70.82;101349.56;5071039;28;20101;-19
2021/10/19 06:38:31;;;;;;;28.70;17.92;;;;;;;12.54;70.81;101370.09;5090481;28;20036;-21
2021/10/19 06:40:57;;;;;;;30.83;20.23;;;;;;;12.68;70.47;101379.00;5092800;28;20058;-21
2021/10/19 06:43:23;;;;;;;28.40;18.27;;;;;;;12.52;69.92;101371.34;5092909;28;20043;-20
2021/10/19 06:45:48;;;;;;;30.15;19.23;;;;;;;12.79;69.38;101382.94;5074654;28;20460;-20
2021/10/19 06:48:14;;;;;;;29.48;18.88;;;;;;;12.81;70.34;101383.56;5092726;28;20061;-20
2021/10/19 06:50:39;;;;;;;25.55;16.75;;;;;;;12.88;68.95;101381.75;5092850;28;20032;-22
2021/10/19 06:53:05;;;;;;;26.38;18.42;;;;;;;12.82;69.61;101388.72;5092676;28;20040;-20
2021/10/19 06:55:30;;;;;;;27.75;18.35;;;;;;;12.90;69.49;101389.59;5092507;28;20024;-20
2021/10/19 06:57:56;;;;;;;28.48;19.08;;;;;;;12.98;68.83;101387.56;5092807;28;20036;-20
2021/10/19 07:00:21;;;;;;;24.65;18.20;;;;;;;13.21;69.26;101403.25;5092220;28;20020;-21
2021/10/19 07:02:47;;;;;;;26.52;18.48;;;;;;;13.29;68.51;101402.25;5092263;28;20043;-20
2021/10/19 07:05:13;;;;;;;25.60;18.67;;;;;;;13.38;68.13;101397.53;5092563;28;20063;-20
2021/10/19 07:07:39;;;;;;;92.57;51.83;;;;;;;13.26;70.03;101395.44;5074212;28;20035;-19
2021/10/19 07:10:05;;;;;;;55.17;32.35;;;;;;;13.40;69.72;101406.19;5092501;28;20024;-19
2021/10/19 07:12:31;;;;;;;27.27;19.00;;;;;;;13.36;69.38;101410.31;5074019;28;20175;-19
2021/10/19 07:14:56;;;;;;;25.42;17.77;;;;;;;13.45;69.38;101409.91;5092064;28;20036;-20
2021/10/19 07:17:22;;;;;;;24.88;17.70;;;;;;;13.56;69.23;101411.16;5092474;28;20032;-19
2021/10/19 07:19:47;;;;;;;25.15;17.95;;;;;;;13.47;67.99;101412.41;5074186;28;20028;-19
2021/10/19 07:22:17;;;;;;;24.25;17.60;;;;;;;13.39;68.13;101416.09;5091981;28;20551;-20
2021/10/19 07:24:42;;;;;;;22.88;16.85;;;;;;;13.39;69.28;101416.09;5092201;28;20433;-21
2021/10/19 07:27:08;;;;;;;26.88;18.17;;;;;;;13.67;68.60;101417.78;5091485;28;20043;-20
2021/10/19 07:29:34;;;;;;;22.20;16.10;;;;;;;13.52;65.80;101415.28;5092139;28;20028;-19
2021/10/19 07:31:59;;;;;;;27.40;16.83;;;;;;;13.51;65.07;101408.28;5091905;28;20102;-21
2021/10/19 07:34:25;;;;;;;29.85;17.15;;;;;;;13.64;63.74;101405.59;5092134;28;20040;-20
2021/10/19 07:36:53;;;;;;;23.83;16.50;;;;;;;13.64;63.77;101413.63;5091622;28;20047;-19
2021/10/19 07:39:18;;;;;;;35.90;19.13;;;;;;;13.74;65.40;101415.09;5092163;28;20035;-19
2021/10/19 07:41:44;;;;;;;22.08;15.60;;;;;;;13.83;63.66;101408.47;5057367;28;20032;-20
2021/10/19 07:44:09;;;;;;;22.35;16.33;;;;;;;13.99;62.52;101405.34;5091538;28;20511;-19
2021/10/19 07:46:35;;;;;;;21.48;16.33;;;;;;;14.04;62.61;101402.88;5091664;28;20074;-20
2021/10/19 07:49:01;;;;;;;22.40;15.00;;;;;;;14.05;61.03;101396.47;5090681;28;20182;-20
2021/10/19 07:51:26;;;;;;;20.35;14.43;;;;;;;14.19;61.23;101415.22;5090938;28;20036;-20
2021/10/19 07:53:52;;;;;;;21.58;15.27;;;;;;;14.21;60.55;101408.63;5091444;28;20144;-19
2021/10/19 07:56:20;;;;;;;19.85;14.20;;;;;;;14.20;61.19;101416.88;5091379;28;20020;-19
2021/10/19 07:58:45;;;;;;;18.90;13.25;;;;;;;14.45;60.46;101409.78;5073501;28;20028;-19
2021/10/19 08:01:11;;;;;;;19.02;14.50;;;;;;;14.38;59.85;101419.72;5091360;28;20484;-20
2021/10/19 08:03:36;;;;;;;21.63;14.77;;;;;;;14.45;58.68;101415.16;5091256;28;20523;-20
2021/10/19 08:06:02;;;;;;;22.83;15.40;;;;;;;14.33;59.98;101419.53;5091288;28;20028;-21
2021/10/19 08:08:27;;;;;;;20.67;14.80;;;;;;;14.43;59.70;101414.53;5091151;28;20105;-19
2021/10/19 08:10:53;;;;;;;20.30;14.50;;;;;;;14.80;60.00;101420.22;5090978;28;20040;-19
2021/10/19 08:13:19;;;;;;;22.85;16.08;;;;;;;14.85;59.48;101412.34;5091193;28;20028;-20
2021/10/19 08:15:45;;;;;;;21.88;15.55;;;;;;;14.91;58.74;101407.16;5090933;28;20499;-23
2021/10/19 08:18:11;;;;;;;21.92;16.77;;;;;;;15.00;58.36;101400.50;5078617;28;20021;-20
2021/10/19 08:20:36;;;;;;;24.60;15.15;;;;;;;15.35;57.83;101406.25;5080137;28;20038;-19
2021/10/19 08:23:02;;;;;;;27.60;16.85;;;;;;;15.79;57.27;101425.19;5054928;28;20028;-20
2021/10/19 08:25:28;;;;;;;21.70;15.98;;;;;;;16.11;57.52;101417.03;5070632;28;20032;-20
2021/10/19 08:27:53;;;;;;;23.73;15.82;;;;;;;16.23;57.09;101416.06;5070618;28;20055;-20
2021/10/19 08:30:20;;;;;;;22.25;15.88;;;;;;;16.46;57.06;101410.00;5070079;28;20058;-20
2021/10/19 08:32:46;;;;;;;20.25;15.65;;;;;;;16.20;56.31;101415.69;5070321;28;20072;-19
2021/10/19 08:35:12;;;;;;;20.35;15.57;;;;;;;16.64;56.07;101411.06;5070244;28;20853;-20
2021/10/19 08:37:37;;;;;;;23.77;16.15;;;;;;;16.61;56.39;101411.50;5052826;28;20036;-20
2021/10/19 08:40:04;;;;;;;27.13;18.13;;;;;;;16.98;56.63;101416.84;5070417;28;20024;-20
2021/10/19 08:42:29;;;;;;;24.98;18.27;;;;;;;17.42;56.59;101409.38;5070134;28;20150;-20
2021/10/19 08:44:55;;;;;;;26.10;18.33;;;;;;;17.20;55.41;101392.91;5052159;28;20111;-20
2021/10/19 08:47:21;;;;;;;20.65;15.82;;;;;;;17.54;54.89;101414.78;5070143;28;20626;-20
2021/10/19 08:49:47;;;;;;;22.52;16.13;;;;;;;17.46;54.81;101403.28;5070345;28;20141;-19
2021/10/19 08:52:12;;;;;;;20.83;15.60;;;;;;;17.59;52.27;101399.56;5070187;28;20032;-20
2021/10/19 08:54:39;;;;;;;24.13;17.27;;;;;;;17.46;52.62;101403.28;5069909;28;20036;-19
2021/10/19 08:57:13;;;;;;;23.92;15.90;;;;;;;17.90;54.20;101407.56;5069827;28;20031;-19
2021/10/19 08:59:41;;;;;;;18.02;14.13;;;;;;;17.98;51.88;101394.56;5069931;28;20484;-20
2021/10/19 09:02:07;;;;;;;18.65;14.73;;;;;;;18.02;51.63;101395.72;5070108;28;20067;-20
2021/10/19 09:04:32;;;;;;;17.50;13.02;;;;;;;18.11;48.12;101392.66;5069921;28;20039;-19
2021/10/19 09:06:58;;;;;;;18.65;13.68;;;;;;;17.85;49.50;101405.56;5069575;28;20058;-19
2021/10/19 09:09:25;;;;;;;15.88;12.35;;;;;;;17.54;48.02;101390.53;5069693;28;20051;-19
2021/10/19 09:11:52;;;;;;;15.15;12.23;;;;;;;17.67;47.88;101404.63;5052008;28;20064;-19
2021/10/19 09:14:19;;;;;;;15.40;12.37;;;;;;;17.92;47.00;101384.69;5069900;28;20071;-19
2021/10/19 09:16:51;;;;;;;17.02;14.23;;;;;;;18.03;47.05;101388.44;5069478;28;20024;-22
2021/10/19 09:19:18;;;;;;;18.42;13.68;;;;;;;17.54;49.08;101380.53;5069769;28;20056;-19
2021/10/19 09:21:54;;;;;;;16.33;12.98;;;;;;;17.51;48.26;101393.66;5051760;28;20403;-19
2021/10/19 09:24:33;;;;;;;17.20;13.43;;;;;;;17.92;49.25;101400.91;5069992;28;20025;-20
2021/10/19 09:27:02;;;;;;;16.95;12.90;;;;;;;18.27;47.96;101386.53;5068922;28;20025;-21
2021/10/19 09:29:30;;;;;;;20.15;14.13;;;;;;;18.56;46.38;101378.47;5069639;28;20108;-20
2021/10/19 09:32:00;;;;;;;17.73;12.48;;;;;;;18.02;47.47;101390.31;5069173;28;20508;-19
2021/10/19 09:34:30;;;;;;;16.75;13.05;;;;;;;17.83;46.90;101359.13;5069430;28;20119;-19
2021/10/19 09:36:55;;;;;;;15.98;12.88;;;;;;;18.42;44.89;101342.81;5069354;28;20036;-19
2021/10/19 09:39:29;;;;;;;17.65;14.10;;;;;;;18.87;47.40;101353.69;5069504;28;20037;-19
2021/10/19 09:41:54;;;;;;;17.40;12.40;;;;;;;19.13;44.37;101350.63;5069272;28;20137;-20
2021/10/19 09:44:20;;;;;;;18.10;12.98;;;;;;;18.92;44.67;101360.25;5069745;28;20435;-20
2021/10/19 09:46:45;;;;;;;27.23;20.60;;;;;;;18.87;44.10;101344.78;5068953;28;20040;-22
2021/10/19 09:49:12;;;;;;;25.35;18.80;;;;;;;19.38;43.90;101361.03;5051269;28;20032;-21
2021/10/19 09:51:38;;;;;;;18.47;14.13;;;;;;;19.56;43.38;101365.38;5035455;28;20047;-20
2021/10/19 09:54:06;;;;;;;23.83;14.88;;;;;;;19.85;43.06;101344.47;5069055;28;20698;-20
2021/10/19 09:56:32;;;;;;;15.20;11.13;;;;;;;19.57;44.05;101357.00;5069147;28;20111;-20
2021/10/19 09:58:57;;;;;;;16.75;12.65;;;;;;;19.45;43.77;101356.28;5069249;28;20033;-19
2021/10/19 10:01:23;;;;;;;15.48;12.13;;;;;;;18.95;45.25;101349.78;5034003;28;20037;-19
2021/10/19 10:03:51;;;;;;;15.02;11.30;;;;;;;19.06;45.87;101356.19;5051168;28;20036;-19
2021/10/19 10:06:17;;;;;;;19.95;13.85;;;;;;;19.14;45.04;101342.25;5051604;28;20488;-20
2021/10/19 10:08:43;;;;;;;28.63;16.42;;;;;;;19.49;47.03;101343.88;5034591;28;20036;-19
2021/10/19 10:11:09;;;;;;;24.17;15.82;;;;;;;19.77;45.90;101339.47;5050959;28;20082;-20
2021/10/19 10:13:35;;;;;;;16.55;12.63;;;;;;;19.77;44.77;101336.75;5050432;28;20032;-20
2021/10/19 10:16:09;;;;;;;18.88;12.98;;;;;;;19.57;44.97;101335.34;5068679;28;20036;-19
2021/10/19 10:18:35;;;;;;;18.63;13.00;;;;;;;19.68;44.13;101334.44;5069006;28;20454;-20
2021/10/19 10:21:14;;;;;;;22.30;14.38;;;;;;;19.87;45.42;101329.59;5068967;28;20029;-19
2021/10/19 10:23:40;;;;;;;15.68;12.05;;;;;;;19.95;43.53;101314.81;5068644;28;20119;-19
2021/10/19 10:26:10;;;;;;;14.52;11.35;;;;;;;19.84;44.54;101327.41;5068726;28;20456;-19
2021/10/19 10:28:35;;;;;;;12.88;10.40;;;;;;;20.01;42.86;101316.53;5068802;28;20028;-19
2021/10/19 10:31:03;;;;;;;14.32;10.40;;;;;;;20.48;40.66;101307.03;5068344;28;20063;-20
2021/10/19 10:33:35;;;;;;;14.68;10.20;;;;;;;20.39;39.64;101312.09;5068648;28;20032;-20
2021/10/19 10:36:04;;;;;;;12.13;9.07;;;;;;;20.27;39.17;101287.03;5068566;28;20114;-19
2021/10/19 10:38:30;;;;;;;12.75;9.60;;;;;;;20.38;38.66;101293.38;5068724;28;20059;-19
2021/10/19 10:40:58;;;;;;;15.30;10.95;;;;;;;20.38;37.60;101299.63;5068423;28;20464;-21
2021/10/19 10:43:28;;;;;;;10.90;8.85;;;;;;;21.00;37.30;101283.97;5051298;28;20021;-20
2021/10/19 10:46:20;;;;;;;11.40;9.02;;;;;;;21.10;36.81;101300.31;5050893;28;20035;-21
2021/10/19 10:48:46;;;;;;;13.05;9.38;;;;;;;20.71;37.71;101280.75;5065456;28;20389;-20
2021/10/19 10:51:13;;;;;;;16.83;11.80;;;;;;;21.07;37.93;101271.81;5068503;28;20090;-19
2021/10/19 10:53:40;;;;;;;16.58;11.73;;;;;;;21.73;38.88;101294.25;5068154;28;20025;-20
2021/10/19 10:56:06;;;;;;;13.15;10.18;;;;;;;21.58;38.25;101287.66;5068426;28;20040;-19
2021/10/19 10:58:36;;;;;;;14.40;10.57;;;;;;;22.10;38.69;101277.84;5068496;28;20032;-20
2021/10/19 11:01:15;;;;;;;12.18;9.23;;;;;;;21.42;39.82;101283.19;5050459;28;20429;-20
2021/10/19 11:03:42;;;;;;;15.65;10.27;;;;;;;21.25;40.22;101277.94;5068475;28;20032;-20
2021/10/19 11:06:11;;;;;;;12.63;10.10;;;;;;;21.89;38.13;101281.59;5068257;28;20024;-19